CheckWX is a tool to help pilots better visualize weather data.  It is not intended as a substitute for an official pre-flight weather briefing.

17:30:07 UTC

CYZU METAR
Whitecourt Airport
Whitecourt, Canada
Current

30 mins ago

CYZU 241700Z 08006KT 15SM OVC024 02/M02 A3028 RMK SC8 SLP285
Observed
Mar-24 @ 17:00 UTC
Wind
  • 080° at 6 KTS
Visibility
15 SM
Flight Rules
MVFR
Cloud Levels
  • Overcast at 2,400' AGL
Temperature
C / 36°F
Dewpoint
-2°C / 28°F
Humidity
75%
Altimeter
30.28" Hg
Pressure
1028.5 hPa
Previous

2 hours ago

CYZU 241600Z 09008KT 15SM FEW022 BKN200 01/M02 A3028 RMK SC1CI5 SLP286
Observed
Mar-24 @ 16:00 UTC
Wind
  • 090° at 8 KTS
Visibility
15 SM
Flight Rules
VFR
Cloud Levels
  • Few at 2,200' AGL
  • Broken at 20,000' AGL
Temperature
C / 34°F
Dewpoint
-2°C / 28°F
Humidity
81%
Altimeter
30.28" Hg
Pressure
1028.6 hPa
Previous

3 hours ago

CYZU 241500Z 09008KT 15SM FEW044 BKN200 M00/M02 A3028 RMK SC1CI7 SC TR SLP286
Observed
Mar-24 @ 15:00 UTC
Wind
  • 090° at 8 KTS
Visibility
15 SM
Flight Rules
VFR
Cloud Levels
  • Few at 4,400' AGL
  • Broken at 20,000' AGL
Temperature
C / 32°F
Dewpoint
-2°C / 28°F
Humidity
87%
Altimeter
30.28" Hg
Pressure
1028.6 hPa